sensor_id;sensor_type;location;lat;lon;timestamp;P1;durP1;ratioP1;P2;durP2;ratioP2
30062;SDS011;16889;67.864;24.990;2023-12-14T00:04:25;8.93;;;3.78;;
30062;SDS011;16889;67.864;24.990;2023-12-14T00:09:11;11.40;;;4.35;;
30062;SDS011;16889;67.864;24.990;2023-12-14T00:13:58;9.77;;;4.07;;
30062;SDS011;16889;67.864;24.990;2023-12-14T00:23:29;11.07;;;4.13;;
30062;SDS011;16889;67.864;24.990;2023-12-14T00:33:01;11.53;;;3.70;;
30062;SDS011;16889;67.864;24.990;2023-12-14T00:37:47;9.15;;;3.65;;
30062;SDS011;16889;67.864;24.990;2023-12-14T00:47:18;9.40;;;3.87;;
30062;SDS011;16889;67.864;24.990;2023-12-14T00:56:50;6.90;;;2.38;;
30062;SDS011;16889;67.864;24.990;2023-12-14T01:06:22;8.93;;;3.13;;
30062;SDS011;16889;67.864;24.990;2023-12-14T01:15:54;6.97;;;2.83;;
30062;SDS011;16889;67.864;24.990;2023-12-14T01:25:26;10.05;;;3.00;;
30062;SDS011;16889;67.864;24.990;2023-12-14T01:30:12;8.18;;;3.53;;
30062;SDS011;16889;67.864;24.990;2023-12-14T01:34:58;7.90;;;3.40;;
30062;SDS011;16889;67.864;24.990;2023-12-14T01:39:44;7.50;;;2.83;;
30062;SDS011;16889;67.864;24.990;2023-12-14T01:44:30;8.15;;;3.20;;
30062;SDS011;16889;67.864;24.990;2023-12-14T01:49:16;8.70;;;3.28;;
30062;SDS011;16889;67.864;24.990;2023-12-14T01:54:02;6.85;;;2.95;;
30062;SDS011;16889;67.864;24.990;2023-12-14T01:58:47;23.17;;;4.07;;
30062;SDS011;16889;67.864;24.990;2023-12-14T02:03:33;16.10;;;3.47;;
30062;SDS011;16889;67.864;24.990;2023-12-14T02:08:19;8.15;;;3.45;;
30062;SDS011;16889;67.864;24.990;2023-12-14T02:13:05;10.00;;;3.22;;
30062;SDS011;16889;67.864;24.990;2023-12-14T02:17:52;9.57;;;3.55;;
30062;SDS011;16889;67.864;24.990;2023-12-14T02:27:37;15.27;;;2.90;;
30062;SDS011;16889;67.864;24.990;2023-12-14T02:37:08;17.27;;;3.47;;
30062;SDS011;16889;67.864;24.990;2023-12-14T02:46:40;11.27;;;3.70;;
30062;SDS011;16889;67.864;24.990;2023-12-14T02:51:26;11.27;;;3.08;;
30062;SDS011;16889;67.864;24.990;2023-12-14T03:00:57;7.50;;;2.97;;
30062;SDS011;16889;67.864;24.990;2023-12-14T03:05:43;6.90;;;3.03;;
30062;SDS011;16889;67.864;24.990;2023-12-14T03:10:29;11.50;;;3.28;;
30062;SDS011;16889;67.864;24.990;2023-12-14T03:15:16;10.57;;;3.22;;
30062;SDS011;16889;67.864;24.990;2023-12-14T03:20:03;8.50;;;3.20;;
30062;SDS011;16889;67.864;24.990;2023-12-14T03:24:51;7.40;;;3.33;;
30062;SDS011;16889;67.864;24.990;2023-12-14T03:34:23;8.63;;;2.90;;
30062;SDS011;16889;67.864;24.990;2023-12-14T03:39:09;7.60;;;2.70;;
30062;SDS011;16889;67.864;24.990;2023-12-14T03:48:40;5.67;;;2.67;;
30062;SDS011;16889;67.864;24.990;2023-12-14T03:58:12;7.90;;;3.30;;
30062;SDS011;16889;67.864;24.990;2023-12-14T04:07:44;8.37;;;3.50;;
30062;SDS011;16889;67.864;24.990;2023-12-14T04:17:15;9.63;;;3.63;;
30062;SDS011;16889;67.864;24.990;2023-12-14T04:26:47;8.70;;;3.77;;
30062;SDS011;16889;67.864;24.990;2023-12-14T04:36:19;12.05;;;4.75;;
30062;SDS011;16889;67.864;24.990;2023-12-14T04:41:06;13.00;;;4.68;;
30062;SDS011;16889;67.864;24.990;2023-12-14T04:45:52;19.77;;;5.82;;
30062;SDS011;16889;67.864;24.990;2023-12-14T04:50:38;15.15;;;4.70;;
30062;SDS011;16889;67.864;24.990;2023-12-14T04:55:24;12.18;;;4.88;;
30062;SDS011;16889;67.864;24.990;2023-12-14T05:00:10;18.85;;;5.47;;
30062;SDS011;16889;67.864;24.990;2023-12-14T05:04:57;13.90;;;5.50;;
30062;SDS011;16889;67.864;24.990;2023-12-14T05:09:43;16.30;;;5.32;;
30062;SDS011;16889;67.864;24.990;2023-12-14T05:14:29;12.60;;;5.32;;
30062;SDS011;16889;67.864;24.990;2023-12-14T05:19:15;14.35;;;5.10;;
30062;SDS011;16889;67.864;24.990;2023-12-14T05:24:01;11.80;;;4.93;;
30062;SDS011;16889;67.864;24.990;2023-12-14T05:28:48;10.65;;;4.13;;
30062;SDS011;16889;67.864;24.990;2023-12-14T05:33:37;17.15;;;5.57;;
30062;SDS011;16889;67.864;24.990;2023-12-14T05:38:23;15.77;;;5.70;;
30062;SDS011;16889;67.864;24.990;2023-12-14T05:43:10;21.30;;;5.82;;
30062;SDS011;16889;67.864;24.990;2023-12-14T05:47:56;16.67;;;5.95;;
30062;SDS011;16889;67.864;24.990;2023-12-14T05:52:42;11.82;;;4.97;;
30062;SDS011;16889;67.864;24.990;2023-12-14T05:57:28;18.02;;;5.20;;
30062;SDS011;16889;67.864;24.990;2023-12-14T06:02:14;14.02;;;4.85;;
30062;SDS011;16889;67.864;24.990;2023-12-14T06:07:00;11.13;;;4.93;;
30062;SDS011;16889;67.864;24.990;2023-12-14T06:11:46;14.77;;;5.18;;
30062;SDS011;16889;67.864;24.990;2023-12-14T06:16:31;10.18;;;4.70;;
30062;SDS011;16889;67.864;24.990;2023-12-14T06:21:17;15.75;;;5.03;;
30062;SDS011;16889;67.864;24.990;2023-12-14T06:26:03;13.15;;;4.00;;
30062;SDS011;16889;67.864;24.990;2023-12-14T06:35:35;8.10;;;3.93;;
30062;SDS011;16889;67.864;24.990;2023-12-14T06:40:21;21.85;;;5.55;;
30062;SDS011;16889;67.864;24.990;2023-12-14T06:45:07;10.82;;;4.50;;
30062;SDS011;16889;67.864;24.990;2023-12-14T06:49:55;10.20;;;4.43;;
30062;SDS011;16889;67.864;24.990;2023-12-14T06:54:42;11.93;;;4.82;;
30062;SDS011;16889;67.864;24.990;2023-12-14T06:59:28;12.60;;;4.47;;
30062;SDS011;16889;67.864;24.990;2023-12-14T07:04:14;11.82;;;4.55;;
30062;SDS011;16889;67.864;24.990;2023-12-14T07:08:59;12.60;;;4.95;;
30062;SDS011;16889;67.864;24.990;2023-12-14T07:13:45;11.23;;;4.20;;
30062;SDS011;16889;67.864;24.990;2023-12-14T07:18:31;13.65;;;5.35;;
30062;SDS011;16889;67.864;24.990;2023-12-14T07:23:17;11.80;;;4.68;;
30062;SDS011;16889;67.864;24.990;2023-12-14T07:28:03;10.65;;;4.43;;
30062;SDS011;16889;67.864;24.990;2023-12-14T07:32:49;13.98;;;4.88;;
30062;SDS011;16889;67.864;24.990;2023-12-14T07:37:36;14.02;;;4.80;;
30062;SDS011;16889;67.864;24.990;2023-12-14T07:42:22;17.60;;;5.22;;
30062;SDS011;16889;67.864;24.990;2023-12-14T07:47:07;11.20;;;4.63;;
30062;SDS011;16889;67.864;24.990;2023-12-14T07:51:53;9.77;;;4.38;;
30062;SDS011;16889;67.864;24.990;2023-12-14T07:56:39;12.15;;;4.60;;
30062;SDS011;16889;67.864;24.990;2023-12-14T08:01:25;13.25;;;4.38;;
30062;SDS011;16889;67.864;24.990;2023-12-14T08:06:11;12.50;;;4.97;;
30062;SDS011;16889;67.864;24.990;2023-12-14T08:10:57;13.52;;;4.70;;
30062;SDS011;16889;67.864;24.990;2023-12-14T08:15:43;12.82;;;4.97;;
30062;SDS011;16889;67.864;24.990;2023-12-14T08:25:15;13.85;;;5.10;;
30062;SDS011;16889;67.864;24.990;2023-12-14T08:30:03;12.00;;;4.97;;
30062;SDS011;16889;67.864;24.990;2023-12-14T08:39:35;10.15;;;4.13;;
30062;SDS011;16889;67.864;24.990;2023-12-14T08:44:21;15.30;;;4.97;;
30062;SDS011;16889;67.864;24.990;2023-12-14T08:49:07;12.95;;;5.25;;
30062;SDS011;16889;67.864;24.990;2023-12-14T08:53:53;17.27;;;5.22;;
30062;SDS011;16889;67.864;24.990;2023-12-14T08:58:38;12.52;;;5.03;;
30062;SDS011;16889;67.864;24.990;2023-12-14T09:03:24;12.35;;;4.90;;
30062;SDS011;16889;67.864;24.990;2023-12-14T09:08:11;11.73;;;4.97;;
30062;SDS011;16889;67.864;24.990;2023-12-14T09:12:57;11.90;;;4.38;;
30062;SDS011;16889;67.864;24.990;2023-12-14T09:17:45;12.63;;;4.85;;
30062;SDS011;16889;67.864;24.990;2023-12-14T09:22:32;10.18;;;4.15;;
30062;SDS011;16889;67.864;24.990;2023-12-14T09:27:18;12.68;;;4.70;;
30062;SDS011;16889;67.864;24.990;2023-12-14T09:32:04;10.18;;;4.05;;
30062;SDS011;16889;67.864;24.990;2023-12-14T09:36:52;11.15;;;4.60;;
30062;SDS011;16889;67.864;24.990;2023-12-14T09:41:38;9.50;;;4.15;;
30062;SDS011;16889;67.864;24.990;2023-12-14T09:46:24;10.07;;;4.70;;
30062;SDS011;16889;67.864;24.990;2023-12-14T09:51:15;9.95;;;4.72;;
30062;SDS011;16889;67.864;24.990;2023-12-14T09:56:02;11.77;;;4.78;;
30062;SDS011;16889;67.864;24.990;2023-12-14T10:00:48;12.88;;;4.53;;
30062;SDS011;16889;67.864;24.990;2023-12-14T10:05:34;8.82;;;3.35;;
30062;SDS011;16889;67.864;24.990;2023-12-14T10:10:21;10.82;;;4.05;;
30062;SDS011;16889;67.864;24.990;2023-12-14T10:15:06;8.80;;;4.00;;
30062;SDS011;16889;67.864;24.990;2023-12-14T10:19:53;13.43;;;4.93;;
30062;SDS011;16889;67.864;24.990;2023-12-14T10:24:42;10.15;;;4.30;;
30062;SDS011;16889;67.864;24.990;2023-12-14T10:29:32;9.55;;;4.22;;
30062;SDS011;16889;67.864;24.990;2023-12-14T10:34:20;9.73;;;4.07;;
30062;SDS011;16889;67.864;24.990;2023-12-14T10:39:06;9.77;;;4.00;;
30062;SDS011;16889;67.864;24.990;2023-12-14T10:43:54;13.02;;;4.50;;
30062;SDS011;16889;67.864;24.990;2023-12-14T10:48:43;11.40;;;4.53;;
30062;SDS011;16889;67.864;24.990;2023-12-14T10:53:30;10.60;;;4.88;;
30062;SDS011;16889;67.864;24.990;2023-12-14T10:58:19;14.18;;;4.68;;
30062;SDS011;16889;67.864;24.990;2023-12-14T11:03:05;11.65;;;4.60;;
30062;SDS011;16889;67.864;24.990;2023-12-14T11:13:00;12.70;;;5.28;;
30062;SDS011;16889;67.864;24.990;2023-12-14T11:22:55;17.88;;;5.63;;
30062;SDS011;16889;67.864;24.990;2023-12-14T11:27:43;11.73;;;4.43;;
30062;SDS011;16889;67.864;24.990;2023-12-14T11:32:29;15.65;;;5.28;;
30062;SDS011;16889;67.864;24.990;2023-12-14T11:37:15;15.45;;;5.72;;
30062;SDS011;16889;67.864;24.990;2023-12-14T11:42:04;17.45;;;6.82;;
30062;SDS011;16889;67.864;24.990;2023-12-14T11:46:56;15.40;;;5.75;;
30062;SDS011;16889;67.864;24.990;2023-12-14T11:51:42;23.15;;;6.38;;
30062;SDS011;16889;67.864;24.990;2023-12-14T11:56:33;13.13;;;5.60;;
30062;SDS011;16889;67.864;24.990;2023-12-14T12:01:20;14.20;;;5.75;;
30062;SDS011;16889;67.864;24.990;2023-12-14T12:06:06;20.75;;;7.70;;
30062;SDS011;16889;67.864;24.990;2023-12-14T12:10:52;25.73;;;8.68;;
30062;SDS011;16889;67.864;24.990;2023-12-14T12:15:38;21.30;;;7.57;;
30062;SDS011;16889;67.864;24.990;2023-12-14T12:20:24;22.05;;;7.47;;
30062;SDS011;16889;67.864;24.990;2023-12-14T12:25:11;17.95;;;6.68;;
30062;SDS011;16889;67.864;24.990;2023-12-14T12:29:56;21.95;;;6.97;;
30062;SDS011;16889;67.864;24.990;2023-12-14T12:34:42;21.85;;;5.85;;
30062;SDS011;16889;67.864;24.990;2023-12-14T12:39:28;17.65;;;6.85;;
30062;SDS011;16889;67.864;24.990;2023-12-14T12:44:14;19.67;;;5.80;;
30062;SDS011;16889;67.864;24.990;2023-12-14T12:49:01;14.30;;;5.40;;
30062;SDS011;16889;67.864;24.990;2023-12-14T12:53:48;13.35;;;5.13;;
30062;SDS011;16889;67.864;24.990;2023-12-14T12:58:34;12.35;;;5.53;;
30062;SDS011;16889;67.864;24.990;2023-12-14T13:03:19;13.20;;;5.23;;
30062;SDS011;16889;67.864;24.990;2023-12-14T13:08:05;13.48;;;4.65;;
30062;SDS011;16889;67.864;24.990;2023-12-14T13:12:51;15.43;;;5.13;;
30062;SDS011;16889;67.864;24.990;2023-12-14T13:17:41;14.55;;;5.32;;
30062;SDS011;16889;67.864;24.990;2023-12-14T13:22:28;12.50;;;4.72;;
30062;SDS011;16889;67.864;24.990;2023-12-14T13:27:15;17.88;;;4.85;;
30062;SDS011;16889;67.864;24.990;2023-12-14T13:32:01;13.23;;;4.53;;
30062;SDS011;16889;67.864;24.990;2023-12-14T13:36:47;10.55;;;4.13;;
30062;SDS011;16889;67.864;24.990;2023-12-14T13:41:33;11.30;;;4.63;;
30062;SDS011;16889;67.864;24.990;2023-12-14T13:51:05;18.60;;;5.03;;
30062;SDS011;16889;67.864;24.990;2023-12-14T13:55:53;14.05;;;4.85;;
30062;SDS011;16889;67.864;24.990;2023-12-14T14:00:39;20.40;;;4.93;;
30062;SDS011;16889;67.864;24.990;2023-12-14T14:05:25;18.77;;;5.20;;
30062;SDS011;16889;67.864;24.990;2023-12-14T14:10:10;14.83;;;5.57;;
30062;SDS011;16889;67.864;24.990;2023-12-14T14:14:56;14.82;;;5.15;;
30062;SDS011;16889;67.864;24.990;2023-12-14T14:19:42;13.00;;;4.88;;
30062;SDS011;16889;67.864;24.990;2023-12-14T14:24:28;10.90;;;3.70;;
30062;SDS011;16889;67.864;24.990;2023-12-14T14:29:14;21.47;;;5.03;;
30062;SDS011;16889;67.864;24.990;2023-12-14T14:34:00;16.93;;;4.70;;
30062;SDS011;16889;67.864;24.990;2023-12-14T14:38:47;22.70;;;4.32;;
30062;SDS011;16889;67.864;24.990;2023-12-14T14:43:33;14.60;;;4.73;;
30062;SDS011;16889;67.864;24.990;2023-12-14T14:48:18;10.87;;;4.57;;
30062;SDS011;16889;67.864;24.990;2023-12-14T14:53:04;15.53;;;4.20;;
30062;SDS011;16889;67.864;24.990;2023-12-14T14:57:50;16.47;;;4.73;;
30062;SDS011;16889;67.864;24.990;2023-12-14T15:02:37;12.35;;;4.82;;
30062;SDS011;16889;67.864;24.990;2023-12-14T15:07:22;13.13;;;4.27;;
30062;SDS011;16889;67.864;24.990;2023-12-14T15:12:08;10.88;;;4.05;;
30062;SDS011;16889;67.864;24.990;2023-12-14T15:16:54;8.10;;;3.53;;
30062;SDS011;16889;67.864;24.990;2023-12-14T15:26:27;8.88;;;4.03;;
30062;SDS011;16889;67.864;24.990;2023-12-14T15:31:16;14.68;;;4.18;;
30062;SDS011;16889;67.864;24.990;2023-12-14T15:36:02;10.93;;;4.43;;
30062;SDS011;16889;67.864;24.990;2023-12-14T15:40:48;17.83;;;4.53;;
30062;SDS011;16889;67.864;24.990;2023-12-14T15:45:34;5.93;;;3.08;;
30062;SDS011;16889;67.864;24.990;2023-12-14T15:50:20;7.03;;;2.97;;
30062;SDS011;16889;67.864;24.990;2023-12-14T15:55:07;10.77;;;3.90;;
30062;SDS011;16889;67.864;24.990;2023-12-14T15:59:53;9.47;;;3.27;;
30062;SDS011;16889;67.864;24.990;2023-12-14T16:04:39;10.93;;;3.80;;
30062;SDS011;16889;67.864;24.990;2023-12-14T16:09:25;17.05;;;4.38;;
30062;SDS011;16889;67.864;24.990;2023-12-14T16:14:11;6.97;;;3.37;;
30062;SDS011;16889;67.864;24.990;2023-12-14T16:18:57;13.20;;;4.07;;
30062;SDS011;16889;67.864;24.990;2023-12-14T16:23:43;14.05;;;4.07;;
30062;SDS011;16889;67.864;24.990;2023-12-14T16:28:29;8.27;;;3.80;;
30062;SDS011;16889;67.864;24.990;2023-12-14T16:33:15;8.97;;;4.10;;
30062;SDS011;16889;67.864;24.990;2023-12-14T16:38:01;8.47;;;2.90;;
30062;SDS011;16889;67.864;24.990;2023-12-14T16:42:47;8.20;;;3.23;;
30062;SDS011;16889;67.864;24.990;2023-12-14T16:47:33;10.30;;;4.07;;
30062;SDS011;16889;67.864;24.990;2023-12-14T16:52:19;7.17;;;3.87;;
30062;SDS011;16889;67.864;24.990;2023-12-14T16:57:04;7.47;;;3.47;;
30062;SDS011;16889;67.864;24.990;2023-12-14T17:01:50;8.27;;;3.37;;
30062;SDS011;16889;67.864;24.990;2023-12-14T17:06:36;7.97;;;3.92;;
30062;SDS011;16889;67.864;24.990;2023-12-14T17:11:22;11.17;;;3.83;;
30062;SDS011;16889;67.864;24.990;2023-12-14T17:16:18;8.85;;;4.03;;
30062;SDS011;16889;67.864;24.990;2023-12-14T17:21:04;10.00;;;3.63;;
30062;SDS011;16889;67.864;24.990;2023-12-14T17:30:48;8.60;;;3.33;;
30062;SDS011;16889;67.864;24.990;2023-12-14T17:35:34;7.80;;;3.83;;
30062;SDS011;16889;67.864;24.990;2023-12-14T17:40:19;12.70;;;4.07;;
30062;SDS011;16889;67.864;24.990;2023-12-14T17:45:06;5.87;;;3.03;;
30062;SDS011;16889;67.864;24.990;2023-12-14T17:49:53;8.85;;;3.45;;
30062;SDS011;16889;67.864;24.990;2023-12-14T17:54:39;8.13;;;3.90;;
30062;SDS011;16889;67.864;24.990;2023-12-14T17:59:25;6.22;;;2.70;;
30062;SDS011;16889;67.864;24.990;2023-12-14T18:04:11;7.77;;;3.60;;
30062;SDS011;16889;67.864;24.990;2023-12-14T18:08:58;8.70;;;3.67;;
30062;SDS011;16889;67.864;24.990;2023-12-14T18:13:44;7.50;;;3.77;;
30062;SDS011;16889;67.864;24.990;2023-12-14T18:18:30;8.87;;;3.53;;
30062;SDS011;16889;67.864;24.990;2023-12-14T18:23:16;11.87;;;4.67;;
30062;SDS011;16889;67.864;24.990;2023-12-14T18:28:02;9.90;;;3.80;;
30062;SDS011;16889;67.864;24.990;2023-12-14T18:32:49;7.53;;;3.47;;
30062;SDS011;16889;67.864;24.990;2023-12-14T18:37:36;8.82;;;3.60;;
30062;SDS011;16889;67.864;24.990;2023-12-14T18:42:22;10.47;;;3.67;;
30062;SDS011;16889;67.864;24.990;2023-12-14T18:47:08;5.20;;;2.53;;
30062;SDS011;16889;67.864;24.990;2023-12-14T18:51:54;7.33;;;3.80;;
30062;SDS011;16889;67.864;24.990;2023-12-14T18:56:40;8.40;;;3.58;;
30062;SDS011;16889;67.864;24.990;2023-12-14T19:01:26;9.10;;;3.60;;
30062;SDS011;16889;67.864;24.990;2023-12-14T19:06:12;7.47;;;3.57;;
30062;SDS011;16889;67.864;24.990;2023-12-14T19:10:59;8.13;;;3.75;;
30062;SDS011;16889;67.864;24.990;2023-12-14T19:15:45;7.87;;;3.20;;
30062;SDS011;16889;67.864;24.990;2023-12-14T19:20:31;9.27;;;3.33;;
30062;SDS011;16889;67.864;24.990;2023-12-14T19:25:17;6.40;;;3.07;;
30062;SDS011;16889;67.864;24.990;2023-12-14T19:30:04;9.20;;;3.38;;
30062;SDS011;16889;67.864;24.990;2023-12-14T19:34:51;9.38;;;3.63;;
30062;SDS011;16889;67.864;24.990;2023-12-14T19:39:37;7.20;;;3.20;;
30062;SDS011;16889;67.864;24.990;2023-12-14T19:44:23;7.57;;;3.57;;
30062;SDS011;16889;67.864;24.990;2023-12-14T19:49:09;6.97;;;3.37;;
30062;SDS011;16889;67.864;24.990;2023-12-14T19:53:55;7.77;;;3.70;;
30062;SDS011;16889;67.864;24.990;2023-12-14T19:58:41;5.67;;;2.67;;
30062;SDS011;16889;67.864;24.990;2023-12-14T20:03:26;9.17;;;3.73;;
30062;SDS011;16889;67.864;24.990;2023-12-14T20:08:13;7.47;;;3.53;;
30062;SDS011;16889;67.864;24.990;2023-12-14T20:13:04;11.23;;;4.68;;
30062;SDS011;16889;67.864;24.990;2023-12-14T20:17:59;8.73;;;3.55;;
30062;SDS011;16889;67.864;24.990;2023-12-14T20:22:45;11.43;;;3.80;;
30062;SDS011;16889;67.864;24.990;2023-12-14T20:27:31;12.60;;;3.87;;
30062;SDS011;16889;67.864;24.990;2023-12-14T20:32:17;10.98;;;3.88;;
30062;SDS011;16889;67.864;24.990;2023-12-14T20:37:03;11.70;;;4.20;;
30062;SDS011;16889;67.864;24.990;2023-12-14T20:41:49;9.47;;;4.20;;
30062;SDS011;16889;67.864;24.990;2023-12-14T20:46:35;10.90;;;3.70;;
30062;SDS011;16889;67.864;24.990;2023-12-14T20:51:21;8.32;;;3.75;;
30062;SDS011;16889;67.864;24.990;2023-12-14T20:56:08;8.75;;;3.65;;
30062;SDS011;16889;67.864;24.990;2023-12-14T21:00:54;6.78;;;3.22;;
30062;SDS011;16889;67.864;24.990;2023-12-14T21:05:40;7.30;;;3.43;;
30062;SDS011;16889;67.864;24.990;2023-12-14T21:10:28;7.80;;;3.25;;
30062;SDS011;16889;67.864;24.990;2023-12-14T21:15:14;5.77;;;2.53;;
30062;SDS011;16889;67.864;24.990;2023-12-14T21:20:00;7.60;;;3.63;;
30062;SDS011;16889;67.864;24.990;2023-12-14T21:24:46;11.00;;;3.65;;
30062;SDS011;16889;67.864;24.990;2023-12-14T21:29:37;9.25;;;4.00;;
30062;SDS011;16889;67.864;24.990;2023-12-14T21:34:24;9.18;;;3.75;;
30062;SDS011;16889;67.864;24.990;2023-12-14T21:39:10;9.43;;;4.27;;
30062;SDS011;16889;67.864;24.990;2023-12-14T21:43:56;10.70;;;4.23;;
30062;SDS011;16889;67.864;24.990;2023-12-14T21:48:42;8.77;;;3.77;;
30062;SDS011;16889;67.864;24.990;2023-12-14T21:53:27;9.13;;;3.40;;
30062;SDS011;16889;67.864;24.990;2023-12-14T21:58:13;9.20;;;4.17;;
30062;SDS011;16889;67.864;24.990;2023-12-14T22:02:59;9.03;;;3.97;;
30062;SDS011;16889;67.864;24.990;2023-12-14T22:07:45;8.63;;;4.03;;
30062;SDS011;16889;67.864;24.990;2023-12-14T22:12:31;12.97;;;4.00;;
30062;SDS011;16889;67.864;24.990;2023-12-14T22:17:17;7.97;;;3.63;;
30062;SDS011;16889;67.864;24.990;2023-12-14T22:22:03;12.53;;;3.60;;
30062;SDS011;16889;67.864;24.990;2023-12-14T22:26:49;10.98;;;3.67;;
30062;SDS011;16889;67.864;24.990;2023-12-14T22:31:35;12.13;;;4.57;;
30062;SDS011;16889;67.864;24.990;2023-12-14T22:36:21;10.00;;;3.90;;
30062;SDS011;16889;67.864;24.990;2023-12-14T22:41:07;7.37;;;2.60;;
30062;SDS011;16889;67.864;24.990;2023-12-14T22:45:58;8.07;;;3.45;;
30062;SDS011;16889;67.864;24.990;2023-12-14T22:55:30;9.15;;;3.35;;
30062;SDS011;16889;67.864;24.990;2023-12-14T23:00:16;7.60;;;3.47;;
30062;SDS011;16889;67.864;24.990;2023-12-14T23:05:07;15.20;;;4.00;;
30062;SDS011;16889;67.864;24.990;2023-12-14T23:14:39;9.23;;;4.03;;
30062;SDS011;16889;67.864;24.990;2023-12-14T23:19:25;12.47;;;4.63;;
30062;SDS011;16889;67.864;24.990;2023-12-14T23:24:11;11.53;;;3.83;;
30062;SDS011;16889;67.864;24.990;2023-12-14T23:28:57;10.60;;;3.60;;
30062;SDS011;16889;67.864;24.990;2023-12-14T23:33:43;9.90;;;3.47;;
30062;SDS011;16889;67.864;24.990;2023-12-14T23:38:28;9.47;;;3.97;;
30062;SDS011;16889;67.864;24.990;2023-12-14T23:43:14;12.20;;;4.20;;
30062;SDS011;16889;67.864;24.990;2023-12-14T23:52:47;9.57;;;3.47;;
30062;SDS011;16889;67.864;24.990;2023-12-14T23:57:33;9.38;;;4.10;;
